createdAt,value
2023-01-06T00:03:12.020Z,97.80
2023-01-06T00:07:16.032Z,97.80
2023-01-06T00:11:19.848Z,97.80
2023-01-06T00:15:23.656Z,97.70
2023-01-06T00:19:27.623Z,97.70
2023-01-06T00:23:31.932Z,97.80
2023-01-06T00:27:35.766Z,97.80
2023-01-06T05:35:20.941Z,97.80
2023-01-06T05:39:24.600Z,97.80
2023-01-06T05:43:29.145Z,97.70
2023-01-06T05:47:32.664Z,97.60
2023-01-06T05:51:36.248Z,97.60
2023-01-06T05:55:39.848Z,97.50
2023-01-06T05:59:43.559Z,97.60
2023-01-06T06:03:47.438Z,97.60
2023-01-06T06:07:57.557Z,97.70
2023-01-06T06:12:01.257Z,97.80
2023-01-06T06:16:09.728Z,97.80
2023-01-06T06:20:16.516Z,97.60
2023-01-06T06:24:20.211Z,97.50
2023-01-06T06:28:43.036Z,97.40
2023-01-06T06:32:46.739Z,97.60
2023-01-06T06:36:50.713Z,97.70
2023-01-06T06:40:54.947Z,97.80
2023-01-06T06:44:58.618Z,97.60
2023-01-06T06:49:02.678Z,97.50
2023-01-06T06:53:06.877Z,97.40
2023-01-06T06:57:10.610Z,97.30
2023-01-06T07:01:16.989Z,97.30
2023-01-06T07:05:20.817Z,97.50
2023-01-06T07:09:24.408Z,97.50
2023-01-06T07:13:28.437Z,97.50
2023-01-06T07:17:32.157Z,97.50
2023-01-06T07:21:35.747Z,97.40
2023-01-06T07:25:39.278Z,97.00
2023-01-06T07:29:43.420Z,96.70
2023-01-06T07:33:47.173Z,96.40
2023-01-06T07:37:51.176Z,96.20
2023-01-06T07:41:54.871Z,96.20
2023-01-06T07:45:58.670Z,96.20
2023-01-06T07:50:03.361Z,96.10
2023-01-06T07:54:06.926Z,96.40
2023-01-06T07:58:10.834Z,96.40
2023-01-06T08:02:14.708Z,96.40
2023-01-06T08:06:18.638Z,96.30
2023-01-06T08:10:25.392Z,96.20
2023-01-06T08:14:29.945Z,96.20
2023-01-06T08:18:34.215Z,96.40
2023-01-06T08:22:37.936Z,96.60
2023-01-06T08:26:42.081Z,96.60
2023-01-06T08:30:51.066Z,96.70
2023-01-06T08:34:56.206Z,96.80
2023-01-06T08:39:00.715Z,96.80
2023-01-06T08:43:04.806Z,96.90
2023-01-06T08:47:08.723Z,97.00
2023-01-06T08:51:16.295Z,97.10
2023-01-06T08:55:24.874Z,97.20
2023-01-06T08:59:28.878Z,97.20
2023-01-06T09:03:33.427Z,97.30
2023-01-06T09:08:04.859Z,97.30
2023-01-06T09:12:12.334Z,97.20
2023-01-06T09:16:17.974Z,97.10
2023-01-06T09:20:23.276Z,97.00
2023-01-06T09:24:27.343Z,96.80
2023-01-06T09:28:32.887Z,96.70
2023-01-06T09:32:39.806Z,96.60
2023-01-06T09:36:43.555Z,96.50
2023-01-06T09:40:50.597Z,96.60
2023-01-06T09:44:59.355Z,96.30
2023-01-06T09:49:24.892Z,96.40
2023-01-06T09:53:37.750Z,96.50
2023-01-06T09:57:57.471Z,96.40
2023-01-06T10:02:05.709Z,96.40
2023-01-06T10:06:21.671Z,96.40
2023-01-06T10:10:35.156Z,96.70
2023-01-06T10:14:57.793Z,96.60
2023-01-06T10:19:30.396Z,96.60
2023-01-06T10:23:33.987Z,96.70
2023-01-06T10:27:41.923Z,96.70
2023-01-06T10:31:48.757Z,96.70
2023-01-06T10:35:54.573Z,96.60
2023-01-06T10:40:29.553Z,96.60
2023-01-06T10:44:34.906Z,96.80
2023-01-06T10:48:40.109Z,96.70
2023-01-06T10:52:45.347Z,96.60
2023-01-06T10:57:20.449Z,96.60
2023-01-06T11:01:27.009Z,96.50
2023-01-06T11:05:33.203Z,96.30
2023-01-06T11:09:37.285Z,96.30
2023-01-06T11:13:46.905Z,96.40
2023-01-06T11:17:51.132Z,96.40
2023-01-06T11:21:55.369Z,96.20
2023-01-06T11:26:13.536Z,96.20
2023-01-06T11:30:28.760Z,96.10
2023-01-06T11:34:33.669Z,96.00
2023-01-06T11:39:12.998Z,95.90
2023-01-06T11:43:31.305Z,95.90
2023-01-06T11:47:36.081Z,96.20
2023-01-06T11:51:43.707Z,96.60
2023-01-06T11:55:58.254Z,96.90
2023-01-06T12:00:20.826Z,97.10
2023-01-06T12:04:32.771Z,97.30
2023-01-06T12:08:52.517Z,97.30
2023-01-06T12:12:56.672Z,97.00
2023-01-06T12:17:19.387Z,96.60
2023-01-06T12:21:31.473Z,96.30
2023-01-06T12:26:00.915Z,96.10
2023-01-06T12:30:27.125Z,95.90
2023-01-06T12:34:38.093Z,95.80
2023-01-06T12:39:21.613Z,95.80
2023-01-06T12:43:29.254Z,95.80
2023-01-06T12:47:55.920Z,95.80
2023-01-06T12:52:06.131Z,95.80
2023-01-06T12:56:29.454Z,95.90
2023-01-06T13:00:54.028Z,95.90
2023-01-06T13:05:12.692Z,95.90
2023-01-06T13:09:50.155Z,95.80
2023-01-06T13:14:18.859Z,95.80
2023-01-06T13:18:50.309Z,96.00
2023-01-06T13:23:16.281Z,96.00
2023-01-06T13:27:48.126Z,96.00
2023-01-06T13:32:16.929Z,96.00
2023-01-06T13:36:52.773Z,96.40
2023-01-06T13:41:01.412Z,97.00
2023-01-06T13:45:10.863Z,97.00
2023-01-06T13:49:16.213Z,96.90
2023-01-06T13:53:25.065Z,96.70
2023-01-06T13:57:38.734Z,96.50
2023-01-06T14:01:44.452Z,96.30
2023-01-06T14:05:51.215Z,96.20
2023-01-06T14:09:55.293Z,96.20
2023-01-06T14:14:05.188Z,96.20
2023-01-06T14:18:35.190Z,96.20
2023-01-06T14:22:39.617Z,96.20
2023-01-06T14:26:48.032Z,96.30
2023-01-06T14:31:13.059Z,96.30
2023-01-06T14:35:22.747Z,96.40
2023-01-06T14:39:30.732Z,96.50
2023-01-06T14:44:03.374Z,96.50
2023-01-06T14:48:20.912Z,96.50
2023-01-06T14:52:37.888Z,96.60
2023-01-06T14:56:42.227Z,96.60
2023-01-06T15:00:46.744Z,96.70
2023-01-06T15:04:57.246Z,96.70
2023-01-06T15:09:21.610Z,96.70
2023-01-06T15:13:29.641Z,96.70
2023-01-06T15:17:33.463Z,96.80
2023-01-06T15:21:45.644Z,96.80
2023-01-06T15:25:51.470Z,96.90
2023-01-06T15:29:57.724Z,96.90
2023-01-06T15:34:22.484Z,97.00
2023-01-06T15:38:37.277Z,97.00
2023-01-06T15:42:41.838Z,97.10
2023-01-06T15:46:45.495Z,97.10
2023-01-06T15:50:50.412Z,97.10
2023-01-06T15:54:59.313Z,97.20
2023-01-06T15:59:13.636Z,97.30
2023-01-06T16:03:23.077Z,97.30
2023-01-06T16:07:42.558Z,97.40
2023-01-06T16:12:19.699Z,97.40
2023-01-06T16:16:27.577Z,97.40
2023-01-06T16:20:31.457Z,97.50
2023-01-06T16:24:35.564Z,97.50
2023-01-06T16:28:47.298Z,97.50
2023-01-06T16:32:53.464Z,97.60
2023-01-06T16:36:59.052Z,97.60
2023-01-06T16:41:02.907Z,97.60
2023-01-06T16:45:31.140Z,97.70
2023-01-06T16:49:35.098Z,97.70
2023-01-06T16:53:39.261Z,97.70
2023-01-06T16:57:50.970Z,97.70
2023-01-06T17:01:56.247Z,97.70
2023-01-06T17:06:00.054Z,97.70
2023-01-06T17:10:08.163Z,97.70
2023-01-06T17:14:23.395Z,97.70
2023-01-06T17:18:32.842Z,97.80
2023-01-06T17:22:37.417Z,97.80
2023-01-06T17:26:44.397Z,97.80
2023-01-06T17:30:50.187Z,97.80
2023-01-06T17:34:54.479Z,97.80
2023-01-06T17:38:59.747Z,97.80
2023-01-06T17:43:15.530Z,97.80
2023-01-06T17:47:37.793Z,97.80
2023-01-06T17:51:43.267Z,97.80
2023-01-06T17:55:50.181Z,97.90
2023-01-06T17:59:56.411Z,97.90
2023-01-06T18:04:01.299Z,97.90
2023-01-06T18:08:10.279Z,97.90
2023-01-06T18:12:19.187Z,97.90
2023-01-06T18:16:33.284Z,98.00
2023-01-06T18:20:40.176Z,98.00
2023-01-06T18:24:51.267Z,97.90
2023-01-06T18:29:00.112Z,97.90
2023-01-06T18:33:20.798Z,97.90
2023-01-06T18:37:28.450Z,97.90
2023-01-06T18:41:40.053Z,97.90
2023-01-06T18:45:45.519Z,97.90
2023-01-06T18:49:50.431Z,97.90
2023-01-06T18:53:54.267Z,97.90
2023-01-06T18:58:08.718Z,97.90
2023-01-06T19:02:33.082Z,97.90
2023-01-06T19:07:01.432Z,97.90
2023-01-06T19:11:16.956Z,97.90
2023-01-06T19:15:26.271Z,97.90
2023-01-06T19:19:39.643Z,97.90
2023-01-06T19:23:43.792Z,97.90
2023-01-06T19:27:50.523Z,98.00
2023-01-06T19:31:57.544Z,97.90
2023-01-06T19:36:03.243Z,97.90
2023-01-06T19:40:23.227Z,98.00
2023-01-06T19:44:33.742Z,98.00
2023-01-06T19:48:42.314Z,98.00
2023-01-06T19:52:58.649Z,97.80
2023-01-06T19:57:07.493Z,97.80
2023-01-06T20:01:14.767Z,97.80
2023-01-06T20:05:19.422Z,97.80
2023-01-06T20:09:23.733Z,97.80
2023-01-06T20:13:27.910Z,97.80
2023-01-06T20:17:31.993Z,97.80
2023-01-06T20:21:38.451Z,97.90
2023-01-06T20:25:47.452Z,97.90
2023-01-06T20:29:58.780Z,97.80
2023-01-06T20:34:06.563Z,97.90
2023-01-06T20:38:13.493Z,97.90
2023-01-06T20:42:24.046Z,97.90
2023-01-06T20:46:30.503Z,97.90
2023-01-06T20:50:34.902Z,98.00
2023-01-06T20:54:39.183Z,97.90
2023-01-06T20:58:45.171Z,97.90
2023-01-06T21:02:53.116Z,97.80
2023-01-06T21:07:02.140Z,97.80
2023-01-06T21:11:14.056Z,97.80
2023-01-06T21:15:20.705Z,97.80
2023-01-06T21:19:27.874Z,97.70
2023-01-06T21:23:33.693Z,97.80
2023-01-06T21:27:41.482Z,97.80
2023-01-06T21:31:49.524Z,97.80
2023-01-06T21:35:54.648Z,97.80
2023-01-06T21:39:59.516Z,97.80
2023-01-06T21:44:05.875Z,97.80
2023-01-06T21:48:12.394Z,97.80
2023-01-06T21:52:18.078Z,97.70
2023-01-06T21:56:23.552Z,97.80
2023-01-06T22:00:28.935Z,97.80
2023-01-06T22:04:34.362Z,97.80
2023-01-06T22:08:49.638Z,97.80
2023-01-06T22:12:59.917Z,97.80
2023-01-06T22:17:05.262Z,97.80
2023-01-06T22:21:17.696Z,97.80
2023-01-06T22:25:22.066Z,97.80
2023-01-06T22:29:27.221Z,97.80
2023-01-06T22:33:31.999Z,97.80
2023-01-06T22:37:38.820Z,97.80
2023-01-06T22:41:47.857Z,97.80
2023-01-06T22:45:53.827Z,97.80
2023-01-06T22:50:00.526Z,97.80
2023-01-06T22:54:04.899Z,97.80
2023-01-06T22:58:10.083Z,97.70
2023-01-06T23:02:21.764Z,97.70
2023-01-06T23:06:25.667Z,97.70
2023-01-06T23:10:29.358Z,97.70
2023-01-06T23:14:33.359Z,97.70
2023-01-06T23:18:39.877Z,97.70
2023-01-06T23:22:43.568Z,97.70
2023-01-06T23:26:49.060Z,97.70
2023-01-06T23:30:52.902Z,97.70
2023-01-06T23:34:59.608Z,97.70
2023-01-06T23:39:05.965Z,97.60
2023-01-06T23:43:09.977Z,97.60
2023-01-06T23:47:14.519Z,97.60
2023-01-06T23:51:18.826Z,97.70
2023-01-06T23:55:22.647Z,97.60
2023-01-06T23:59:28.157Z,97.60
